sensor_id;sensor_type;location;lat;lon;timestamp;temperature;humidity
12315;DHT22;23886;46.614;14.276;2022-09-16T00:00:36;15.10;99.90
12315;DHT22;23886;46.614;14.276;2022-09-16T00:03:04;15.10;99.90
12315;DHT22;23886;46.614;14.276;2022-09-16T00:05:31;15.10;99.90
12315;DHT22;23886;46.614;14.276;2022-09-16T00:07:58;15.10;99.90
12315;DHT22;23886;46.614;14.276;2022-09-16T00:10:25;15.20;99.90
12315;DHT22;23886;46.614;14.276;2022-09-16T00:12:52;15.30;99.90
12315;DHT22;23886;46.614;14.276;2022-09-16T00:15:19;15.30;99.90
12315;DHT22;23886;46.614;14.276;2022-09-16T00:17:46;15.30;99.90
12315;DHT22;23886;46.614;14.276;2022-09-16T00:20:15;15.30;99.90
12315;DHT22;23886;46.614;14.276;2022-09-16T00:22:42;15.20;99.90
12315;DHT22;23886;46.614;14.276;2022-09-16T00:25:09;15.20;99.90
12315;DHT22;23886;46.614;14.276;2022-09-16T00:27:36;15.10;99.90
12315;DHT22;23886;46.614;14.276;2022-09-16T00:30:04;15.20;99.90
12315;DHT22;23886;46.614;14.276;2022-09-16T00:32:31;15.20;99.90
12315;DHT22;23886;46.614;14.276;2022-09-16T00:34:58;15.10;99.90
12315;DHT22;23886;46.614;14.276;2022-09-16T00:37:26;15.10;99.90
12315;DHT22;23886;46.614;14.276;2022-09-16T00:39:53;15.10;99.90
12315;DHT22;23886;46.614;14.276;2022-09-16T00:42:20;15.10;99.90
12315;DHT22;23886;46.614;14.276;2022-09-16T00:44:53;15.00;99.90
12315;DHT22;23886;46.614;14.276;2022-09-16T00:47:24;15.00;99.90
12315;DHT22;23886;46.614;14.276;2022-09-16T00:49:55;15.00;99.90
12315;DHT22;23886;46.614;14.276;2022-09-16T00:52:27;15.00;99.90
12315;DHT22;23886;46.614;14.276;2022-09-16T00:54:56;15.10;99.90
12315;DHT22;23886;46.614;14.276;2022-09-16T00:57:23;15.00;99.90
12315;DHT22;23886;46.614;14.276;2022-09-16T00:59:53;15.00;99.90
12315;DHT22;23886;46.614;14.276;2022-09-16T01:02:21;14.90;99.90
12315;DHT22;23886;46.614;14.276;2022-09-16T01:04:53;14.80;99.90
12315;DHT22;23886;46.614;14.276;2022-09-16T01:07:29;14.80;99.90
12315;DHT22;23886;46.614;14.276;2022-09-16T01:09:57;14.70;99.90
12315;DHT22;23886;46.614;14.276;2022-09-16T01:12:26;14.70;99.90
12315;DHT22;23886;46.614;14.276;2022-09-16T01:14:53;14.60;99.90
12315;DHT22;23886;46.614;14.276;2022-09-16T01:17:31;14.60;99.90
12315;DHT22;23886;46.614;14.276;2022-09-16T01:20:22;14.40;99.90
12315;DHT22;23886;46.614;14.276;2022-09-16T01:23:10;14.40;99.90
12315;DHT22;23886;46.614;14.276;2022-09-16T01:25:57;14.40;99.90
12315;DHT22;23886;46.614;14.276;2022-09-16T01:28:42;14.50;99.90
12315;DHT22;23886;46.614;14.276;2022-09-16T01:31:18;14.50;99.90
12315;DHT22;23886;46.614;14.276;2022-09-16T01:33:56;14.60;99.90
12315;DHT22;23886;46.614;14.276;2022-09-16T01:36:34;14.50;99.90
12315;DHT22;23886;46.614;14.276;2022-09-16T01:39:13;14.50;99.90
12315;DHT22;23886;46.614;14.276;2022-09-16T01:41:54;14.60;99.90
12315;DHT22;23886;46.614;14.276;2022-09-16T01:44:28;14.50;99.90
12315;DHT22;23886;46.614;14.276;2022-09-16T01:47:03;14.50;99.90
12315;DHT22;23886;46.614;14.276;2022-09-16T01:49:38;14.50;99.90
12315;DHT22;23886;46.614;14.276;2022-09-16T01:52:17;14.50;99.90
12315;DHT22;23886;46.614;14.276;2022-09-16T01:54:48;14.60;99.90
12315;DHT22;23886;46.614;14.276;2022-09-16T01:57:20;14.70;99.90
12315;DHT22;23886;46.614;14.276;2022-09-16T01:59:51;14.70;99.90
12315;DHT22;23886;46.614;14.276;2022-09-16T02:02:24;14.80;99.90
12315;DHT22;23886;46.614;14.276;2022-09-16T02:04:55;14.80;99.90
12315;DHT22;23886;46.614;14.276;2022-09-16T02:07:27;14.90;99.90
12315;DHT22;23886;46.614;14.276;2022-09-16T02:09:57;14.90;99.90
12315;DHT22;23886;46.614;14.276;2022-09-16T02:12:28;14.90;99.90
12315;DHT22;23886;46.614;14.276;2022-09-16T02:15:04;14.90;99.90
12315;DHT22;23886;46.614;14.276;2022-09-16T02:17:41;14.90;99.90
12315;DHT22;23886;46.614;14.276;2022-09-16T02:20:11;15.00;99.90
12315;DHT22;23886;46.614;14.276;2022-09-16T02:22:43;15.10;99.90
12315;DHT22;23886;46.614;14.276;2022-09-16T02:25:12;15.20;99.90
12315;DHT22;23886;46.614;14.276;2022-09-16T02:27:41;15.20;99.90
12315;DHT22;23886;46.614;14.276;2022-09-16T02:30:13;15.10;99.90
12315;DHT22;23886;46.614;14.276;2022-09-16T02:32:46;15.00;99.90
12315;DHT22;23886;46.614;14.276;2022-09-16T02:35:18;15.20;99.90
12315;DHT22;23886;46.614;14.276;2022-09-16T02:37:49;15.20;99.90
12315;DHT22;23886;46.614;14.276;2022-09-16T02:40:21;15.20;99.90
12315;DHT22;23886;46.614;14.276;2022-09-16T02:42:49;15.20;99.90
12315;DHT22;23886;46.614;14.276;2022-09-16T02:45:16;15.20;99.90
12315;DHT22;23886;46.614;14.276;2022-09-16T02:47:53;15.10;99.90
12315;DHT22;23886;46.614;14.276;2022-09-16T02:50:28;15.20;99.90
12315;DHT22;23886;46.614;14.276;2022-09-16T02:52:59;15.30;99.90
12315;DHT22;23886;46.614;14.276;2022-09-16T02:55:33;15.30;99.90
12315;DHT22;23886;46.614;14.276;2022-09-16T02:58:03;15.30;99.90
12315;DHT22;23886;46.614;14.276;2022-09-16T03:00:31;15.20;99.90
12315;DHT22;23886;46.614;14.276;2022-09-16T03:03:00;15.20;99.90
12315;DHT22;23886;46.614;14.276;2022-09-16T03:05:27;15.20;99.90
12315;DHT22;23886;46.614;14.276;2022-09-16T03:07:55;15.20;99.90
12315;DHT22;23886;46.614;14.276;2022-09-16T03:10:24;15.20;99.90
12315;DHT22;23886;46.614;14.276;2022-09-16T03:12:57;15.30;99.90
12315;DHT22;23886;46.614;14.276;2022-09-16T03:15:47;15.40;99.90
12315;DHT22;23886;46.614;14.276;2022-09-16T03:18:36;15.40;99.90
12315;DHT22;23886;46.614;14.276;2022-09-16T03:21:15;15.40;99.90
12315;DHT22;23886;46.614;14.276;2022-09-16T03:23:48;15.40;99.90
12315;DHT22;23886;46.614;14.276;2022-09-16T03:26:24;15.40;99.90
12315;DHT22;23886;46.614;14.276;2022-09-16T03:29:01;15.50;99.90
12315;DHT22;23886;46.614;14.276;2022-09-16T03:31:32;15.60;99.90
12315;DHT22;23886;46.614;14.276;2022-09-16T03:34:05;15.50;99.90
12315;DHT22;23886;46.614;14.276;2022-09-16T03:36:38;15.60;99.90
12315;DHT22;23886;46.614;14.276;2022-09-16T03:39:08;15.50;99.90
12315;DHT22;23886;46.614;14.276;2022-09-16T03:41:37;15.50;99.90
12315;DHT22;23886;46.614;14.276;2022-09-16T03:44:04;15.50;99.90
12315;DHT22;23886;46.614;14.276;2022-09-16T03:46:31;15.50;99.90
12315;DHT22;23886;46.614;14.276;2022-09-16T03:48:58;15.50;99.90
12315;DHT22;23886;46.614;14.276;2022-09-16T03:51:27;15.40;99.90
12315;DHT22;23886;46.614;14.276;2022-09-16T03:53:54;15.30;99.90
12315;DHT22;23886;46.614;14.276;2022-09-16T03:56:22;15.30;99.90
12315;DHT22;23886;46.614;14.276;2022-09-16T03:58:49;15.30;99.90
12315;DHT22;23886;46.614;14.276;2022-09-16T04:01:16;15.30;99.90
12315;DHT22;23886;46.614;14.276;2022-09-16T04:03:43;15.20;99.90
12315;DHT22;23886;46.614;14.276;2022-09-16T04:06:10;15.20;99.90
12315;DHT22;23886;46.614;14.276;2022-09-16T04:08:39;15.20;99.90
12315;DHT22;23886;46.614;14.276;2022-09-16T04:11:08;15.10;99.90
12315;DHT22;23886;46.614;14.276;2022-09-16T04:13:35;15.10;99.90
12315;DHT22;23886;46.614;14.276;2022-09-16T04:16:03;15.00;99.90
12315;DHT22;23886;46.614;14.276;2022-09-16T04:18:31;15.00;99.90
12315;DHT22;23886;46.614;14.276;2022-09-16T04:21:00;15.00;99.90
12315;DHT22;23886;46.614;14.276;2022-09-16T04:23:28;15.10;99.90
12315;DHT22;23886;46.614;14.276;2022-09-16T04:25:58;15.10;99.90
12315;DHT22;23886;46.614;14.276;2022-09-16T04:28:25;15.20;99.90
12315;DHT22;23886;46.614;14.276;2022-09-16T04:30:53;15.20;99.90
12315;DHT22;23886;46.614;14.276;2022-09-16T04:33:19;15.10;99.90
12315;DHT22;23886;46.614;14.276;2022-09-16T04:35:46;15.10;99.90
12315;DHT22;23886;46.614;14.276;2022-09-16T04:38:13;15.20;99.90
12315;DHT22;23886;46.614;14.276;2022-09-16T04:40:40;15.20;99.90
12315;DHT22;23886;46.614;14.276;2022-09-16T04:43:09;15.20;99.90
12315;DHT22;23886;46.614;14.276;2022-09-16T04:45:36;15.20;99.90
12315;DHT22;23886;46.614;14.276;2022-09-16T04:48:02;15.20;99.90
12315;DHT22;23886;46.614;14.276;2022-09-16T04:50:29;15.00;99.90
12315;DHT22;23886;46.614;14.276;2022-09-16T04:52:56;15.10;99.90
12315;DHT22;23886;46.614;14.276;2022-09-16T04:55:23;15.20;99.90
12315;DHT22;23886;46.614;14.276;2022-09-16T04:57:50;15.20;99.90
12315;DHT22;23886;46.614;14.276;2022-09-16T05:00:19;15.10;99.90
12315;DHT22;23886;46.614;14.276;2022-09-16T05:02:46;15.10;99.90
12315;DHT22;23886;46.614;14.276;2022-09-16T05:05:14;15.10;99.90
12315;DHT22;23886;46.614;14.276;2022-09-16T05:07:42;15.10;99.90
12315;DHT22;23886;46.614;14.276;2022-09-16T05:10:09;15.10;99.90
12315;DHT22;23886;46.614;14.276;2022-09-16T05:12:36;15.10;99.90
12315;DHT22;23886;46.614;14.276;2022-09-16T05:15:04;15.10;99.90
12315;DHT22;23886;46.614;14.276;2022-09-16T05:17:34;15.10;99.90
12315;DHT22;23886;46.614;14.276;2022-09-16T05:20:01;15.10;99.90
12315;DHT22;23886;46.614;14.276;2022-09-16T05:22:28;15.10;99.90
12315;DHT22;23886;46.614;14.276;2022-09-16T05:24:55;15.10;99.90
12315;DHT22;23886;46.614;14.276;2022-09-16T05:27:22;15.20;99.90
12315;DHT22;23886;46.614;14.276;2022-09-16T05:29:52;15.30;99.90
12315;DHT22;23886;46.614;14.276;2022-09-16T05:32:19;15.40;99.90
12315;DHT22;23886;46.614;14.276;2022-09-16T05:34:48;15.50;99.90
12315;DHT22;23886;46.614;14.276;2022-09-16T05:37:15;15.50;99.90
12315;DHT22;23886;46.614;14.276;2022-09-16T05:39:42;15.50;99.90
12315;DHT22;23886;46.614;14.276;2022-09-16T05:42:09;15.50;99.90
12315;DHT22;23886;46.614;14.276;2022-09-16T05:44:36;15.50;99.90
12315;DHT22;23886;46.614;14.276;2022-09-16T05:47:03;15.50;99.90
12315;DHT22;23886;46.614;14.276;2022-09-16T05:49:30;15.50;99.90
12315;DHT22;23886;46.614;14.276;2022-09-16T05:51:58;15.40;99.90
12315;DHT22;23886;46.614;14.276;2022-09-16T05:54:25;15.30;99.90
12315;DHT22;23886;46.614;14.276;2022-09-16T05:56:52;15.30;99.90
12315;DHT22;23886;46.614;14.276;2022-09-16T05:59:19;15.30;99.90
12315;DHT22;23886;46.614;14.276;2022-09-16T06:01:47;15.30;99.90
12315;DHT22;23886;46.614;14.276;2022-09-16T06:04:14;15.20;99.90
12315;DHT22;23886;46.614;14.276;2022-09-16T06:06:43;15.20;99.90
12315;DHT22;23886;46.614;14.276;2022-09-16T06:09:13;15.20;99.90
12315;DHT22;23886;46.614;14.276;2022-09-16T06:11:43;15.20;99.90
12315;DHT22;23886;46.614;14.276;2022-09-16T06:14:11;15.30;99.90
12315;DHT22;23886;46.614;14.276;2022-09-16T06:16:39;15.20;99.90
12315;DHT22;23886;46.614;14.276;2022-09-16T06:19:09;15.20;99.90
12315;DHT22;23886;46.614;14.276;2022-09-16T06:21:38;15.30;99.90
12315;DHT22;23886;46.614;14.276;2022-09-16T06:24:05;15.40;99.90
12315;DHT22;23886;46.614;14.276;2022-09-16T06:26:35;15.30;99.90
12315;DHT22;23886;46.614;14.276;2022-09-16T06:29:03;15.30;99.90
12315;DHT22;23886;46.614;14.276;2022-09-16T06:31:31;15.30;99.90
12315;DHT22;23886;46.614;14.276;2022-09-16T06:33:58;15.30;99.90
12315;DHT22;23886;46.614;14.276;2022-09-16T06:36:28;15.30;99.90
12315;DHT22;23886;46.614;14.276;2022-09-16T06:38:55;15.40;99.90
12315;DHT22;23886;46.614;14.276;2022-09-16T06:41:24;15.60;99.90
12315;DHT22;23886;46.614;14.276;2022-09-16T06:43:52;15.60;99.90
12315;DHT22;23886;46.614;14.276;2022-09-16T06:46:21;15.60;99.90
12315;DHT22;23886;46.614;14.276;2022-09-16T06:48:50;15.50;99.90
12315;DHT22;23886;46.614;14.276;2022-09-16T06:51:18;15.50;99.90
12315;DHT22;23886;46.614;14.276;2022-09-16T06:53:48;15.60;99.90
12315;DHT22;23886;46.614;14.276;2022-09-16T06:56:16;15.60;99.90
12315;DHT22;23886;46.614;14.276;2022-09-16T06:58:45;15.60;99.90
12315;DHT22;23886;46.614;14.276;2022-09-16T07:01:16;15.50;99.90
12315;DHT22;23886;46.614;14.276;2022-09-16T07:03:44;15.50;99.90
12315;DHT22;23886;46.614;14.276;2022-09-16T07:06:12;15.40;99.90
12315;DHT22;23886;46.614;14.276;2022-09-16T07:08:43;15.40;99.90
12315;DHT22;23886;46.614;14.276;2022-09-16T07:11:12;15.40;99.90
12315;DHT22;23886;46.614;14.276;2022-09-16T07:13:39;15.40;99.90
12315;DHT22;23886;46.614;14.276;2022-09-16T07:16:08;15.50;99.90
12315;DHT22;23886;46.614;14.276;2022-09-16T07:18:37;15.60;99.90
12315;DHT22;23886;46.614;14.276;2022-09-16T07:21:05;15.60;99.90
12315;DHT22;23886;46.614;14.276;2022-09-16T07:23:35;15.60;99.90
12315;DHT22;23886;46.614;14.276;2022-09-16T07:26:03;15.60;99.90
12315;DHT22;23886;46.614;14.276;2022-09-16T07:28:31;15.70;99.90
12315;DHT22;23886;46.614;14.276;2022-09-16T07:31:00;15.80;99.90
12315;DHT22;23886;46.614;14.276;2022-09-16T07:33:28;15.70;99.90
12315;DHT22;23886;46.614;14.276;2022-09-16T07:35:58;15.60;99.90
12315;DHT22;23886;46.614;14.276;2022-09-16T07:38:26;15.60;99.90
12315;DHT22;23886;46.614;14.276;2022-09-16T07:40:53;15.60;99.90
12315;DHT22;23886;46.614;14.276;2022-09-16T07:43:20;15.60;99.90
12315;DHT22;23886;46.614;14.276;2022-09-16T07:45:54;15.70;99.90
12315;DHT22;23886;46.614;14.276;2022-09-16T07:48:21;15.70;99.90
12315;DHT22;23886;46.614;14.276;2022-09-16T07:50:54;15.70;99.90
12315;DHT22;23886;46.614;14.276;2022-09-16T07:53:22;15.80;99.90
12315;DHT22;23886;46.614;14.276;2022-09-16T07:55:49;15.80;99.90
12315;DHT22;23886;46.614;14.276;2022-09-16T07:58:16;15.90;99.90
12315;DHT22;23886;46.614;14.276;2022-09-16T08:00:44;16.00;99.90
12315;DHT22;23886;46.614;14.276;2022-09-16T08:03:12;16.10;99.90
12315;DHT22;23886;46.614;14.276;2022-09-16T08:05:39;16.10;99.90
12315;DHT22;23886;46.614;14.276;2022-09-16T08:08:06;16.00;99.90
12315;DHT22;23886;46.614;14.276;2022-09-16T08:10:34;15.80;99.90
12315;DHT22;23886;46.614;14.276;2022-09-16T08:13:01;15.70;99.90
12315;DHT22;23886;46.614;14.276;2022-09-16T08:15:28;15.60;99.90
12315;DHT22;23886;46.614;14.276;2022-09-16T08:17:57;15.70;99.90
12315;DHT22;23886;46.614;14.276;2022-09-16T08:20:24;15.80;99.90
12315;DHT22;23886;46.614;14.276;2022-09-16T08:22:51;15.80;99.90
12315;DHT22;23886;46.614;14.276;2022-09-16T08:25:18;15.70;99.90
12315;DHT22;23886;46.614;14.276;2022-09-16T08:27:47;15.60;99.90
12315;DHT22;23886;46.614;14.276;2022-09-16T08:30:14;15.60;99.90
12315;DHT22;23886;46.614;14.276;2022-09-16T08:32:41;15.50;99.90
12315;DHT22;23886;46.614;14.276;2022-09-16T08:35:08;15.50;99.90
12315;DHT22;23886;46.614;14.276;2022-09-16T08:37:35;15.60;99.90
12315;DHT22;23886;46.614;14.276;2022-09-16T08:40:03;15.70;99.90
12315;DHT22;23886;46.614;14.276;2022-09-16T08:42:42;15.70;99.90
12315;DHT22;23886;46.614;14.276;2022-09-16T08:45:20;15.50;99.90
12315;DHT22;23886;46.614;14.276;2022-09-16T08:48:04;15.60;99.90
12315;DHT22;23886;46.614;14.276;2022-09-16T08:50:37;15.80;99.90
12315;DHT22;23886;46.614;14.276;2022-09-16T08:53:11;16.10;99.90
12315;DHT22;23886;46.614;14.276;2022-09-16T08:55:41;16.30;99.90
12315;DHT22;23886;46.614;14.276;2022-09-16T08:58:14;16.40;99.90
12315;DHT22;23886;46.614;14.276;2022-09-16T09:00:45;16.40;99.90
12315;DHT22;23886;46.614;14.276;2022-09-16T09:03:18;16.30;99.90
12315;DHT22;23886;46.614;14.276;2022-09-16T09:05:51;16.30;99.90
12315;DHT22;23886;46.614;14.276;2022-09-16T09:08:30;16.30;99.90
12315;DHT22;23886;46.614;14.276;2022-09-16T09:11:03;16.30;99.90
12315;DHT22;23886;46.614;14.276;2022-09-16T09:13:45;16.50;99.90
12315;DHT22;23886;46.614;14.276;2022-09-16T09:16:24;16.40;99.90
12315;DHT22;23886;46.614;14.276;2022-09-16T09:19:03;16.30;99.90
12315;DHT22;23886;46.614;14.276;2022-09-16T09:21:39;16.20;99.90
12315;DHT22;23886;46.614;14.276;2022-09-16T09:24:37;16.10;99.90
12315;DHT22;23886;46.614;14.276;2022-09-16T09:27:11;16.00;99.90
12315;DHT22;23886;46.614;14.276;2022-09-16T09:35:49;16.00;99.90
12315;DHT22;23886;46.614;14.276;2022-09-16T09:38:31;16.00;99.90
12315;DHT22;23886;46.614;14.276;2022-09-16T09:41:05;16.00;99.90
12315;DHT22;23886;46.614;14.276;2022-09-16T09:43:38;16.10;99.90
12315;DHT22;23886;46.614;14.276;2022-09-16T09:46:11;16.10;99.90
12315;DHT22;23886;46.614;14.276;2022-09-16T09:48:43;16.00;99.90
12315;DHT22;23886;46.614;14.276;2022-09-16T09:51:17;16.00;99.90
12315;DHT22;23886;46.614;14.276;2022-09-16T09:53:50;16.00;99.90
12315;DHT22;23886;46.614;14.276;2022-09-16T09:56:20;16.10;99.90
12315;DHT22;23886;46.614;14.276;2022-09-16T09:58:58;16.20;99.90
12315;DHT22;23886;46.614;14.276;2022-09-16T10:01:26;16.20;99.90
12315;DHT22;23886;46.614;14.276;2022-09-16T10:03:55;16.10;99.90
12315;DHT22;23886;46.614;14.276;2022-09-16T10:06:27;16.10;99.90
12315;DHT22;23886;46.614;14.276;2022-09-16T10:08:56;16.10;99.90
12315;DHT22;23886;46.614;14.276;2022-09-16T10:11:25;16.00;99.90
12315;DHT22;23886;46.614;14.276;2022-09-16T10:13:53;16.10;99.90
12315;DHT22;23886;46.614;14.276;2022-09-16T10:16:26;16.10;99.90
12315;DHT22;23886;46.614;14.276;2022-09-16T10:19:00;16.00;99.90
12315;DHT22;23886;46.614;14.276;2022-09-16T10:21:39;16.00;99.90
12315;DHT22;23886;46.614;14.276;2022-09-16T10:24:29;16.00;99.90
12315;DHT22;23886;46.614;14.276;2022-09-16T10:26:57;15.90;99.90
12315;DHT22;23886;46.614;14.276;2022-09-16T10:29:24;15.90;99.90
12315;DHT22;23886;46.614;14.276;2022-09-16T10:31:52;15.90;99.90
12315;DHT22;23886;46.614;14.276;2022-09-16T10:34:26;15.90;99.90
12315;DHT22;23886;46.614;14.276;2022-09-16T10:36:59;15.90;99.90
12315;DHT22;23886;46.614;14.276;2022-09-16T10:39:27;15.90;99.90
12315;DHT22;23886;46.614;14.276;2022-09-16T10:41:55;15.90;99.90
12315;DHT22;23886;46.614;14.276;2022-09-16T10:44:24;16.00;99.90
12315;DHT22;23886;46.614;14.276;2022-09-16T10:46:56;16.00;99.90
12315;DHT22;23886;46.614;14.276;2022-09-16T10:49:33;16.20;99.90
12315;DHT22;23886;46.614;14.276;2022-09-16T10:52:13;16.30;99.90
12315;DHT22;23886;46.614;14.276;2022-09-16T10:54:40;16.40;99.90
12315;DHT22;23886;46.614;14.276;2022-09-16T10:57:26;16.30;99.90
12315;DHT22;23886;46.614;14.276;2022-09-16T11:00:09;16.30;99.90
12315;DHT22;23886;46.614;14.276;2022-09-16T11:05:55;16.10;99.90
12315;DHT22;23886;46.614;14.276;2022-09-16T11:08:40;16.10;99.90
12315;DHT22;23886;46.614;14.276;2022-09-16T11:11:13;16.10;99.90
12315;DHT22;23886;46.614;14.276;2022-09-16T11:13:49;15.90;99.90
12315;DHT22;23886;46.614;14.276;2022-09-16T11:16:30;15.90;99.90
12315;DHT22;23886;46.614;14.276;2022-09-16T11:19:11;15.80;99.90
12315;DHT22;23886;46.614;14.276;2022-09-16T11:21:52;15.70;99.90
12315;DHT22;23886;46.614;14.276;2022-09-16T11:24:45;15.80;99.90
12315;DHT22;23886;46.614;14.276;2022-09-16T11:29:54;15.90;99.90
12315;DHT22;23886;46.614;14.276;2022-09-16T11:32:32;16.00;99.90
12315;DHT22;23886;46.614;14.276;2022-09-16T11:35:21;15.90;99.90
12315;DHT22;23886;46.614;14.276;2022-09-16T11:37:58;15.80;99.90
12315;DHT22;23886;46.614;14.276;2022-09-16T11:40:31;15.80;99.90
12315;DHT22;23886;46.614;14.276;2022-09-16T11:43:31;15.90;99.90
12315;DHT22;23886;46.614;14.276;2022-09-16T11:46:08;16.00;99.90
12315;DHT22;23886;46.614;14.276;2022-09-16T11:48:45;16.00;99.90
12315;DHT22;23886;46.614;14.276;2022-09-16T11:51:28;16.00;99.90
12315;DHT22;23886;46.614;14.276;2022-09-16T11:54:13;16.00;99.90
12315;DHT22;23886;46.614;14.276;2022-09-16T11:56:46;16.00;99.90
12315;DHT22;23886;46.614;14.276;2022-09-16T11:59:19;16.00;99.90
12315;DHT22;23886;46.614;14.276;2022-09-16T12:01:51;16.00;99.90
12315;DHT22;23886;46.614;14.276;2022-09-16T12:04:25;16.00;99.90
12315;DHT22;23886;46.614;14.276;2022-09-16T12:06:59;16.20;99.90
12315;DHT22;23886;46.614;14.276;2022-09-16T12:09:35;16.10;99.90
12315;DHT22;23886;46.614;14.276;2022-09-16T12:12:10;16.20;99.90
12315;DHT22;23886;46.614;14.276;2022-09-16T12:14:41;15.90;99.90
12315;DHT22;23886;46.614;14.276;2022-09-16T12:17:15;15.90;99.90
12315;DHT22;23886;46.614;14.276;2022-09-16T12:19:49;15.70;99.90
12315;DHT22;23886;46.614;14.276;2022-09-16T12:22:20;15.70;99.90
12315;DHT22;23886;46.614;14.276;2022-09-16T12:24:55;15.90;99.90
12315;DHT22;23886;46.614;14.276;2022-09-16T12:27:36;15.90;99.90
12315;DHT22;23886;46.614;14.276;2022-09-16T12:30:10;15.90;99.90
12315;DHT22;23886;46.614;14.276;2022-09-16T12:32:46;16.00;99.90
12315;DHT22;23886;46.614;14.276;2022-09-16T12:35:17;16.00;99.90
12315;DHT22;23886;46.614;14.276;2022-09-16T12:37:47;16.00;99.90
12315;DHT22;23886;46.614;14.276;2022-09-16T12:40:19;16.00;99.90
12315;DHT22;23886;46.614;14.276;2022-09-16T12:43:14;15.90;99.90
12315;DHT22;23886;46.614;14.276;2022-09-16T12:45:57;15.70;99.90
12315;DHT22;23886;46.614;14.276;2022-09-16T12:51:49;15.50;99.90
12315;DHT22;23886;46.614;14.276;2022-09-16T12:54:41;15.50;99.90
12315;DHT22;23886;46.614;14.276;2022-09-16T12:57:21;15.50;99.90
12315;DHT22;23886;46.614;14.276;2022-09-16T13:00:03;15.50;99.90
12315;DHT22;23886;46.614;14.276;2022-09-16T13:02:35;15.50;99.90
12315;DHT22;23886;46.614;14.276;2022-09-16T13:05:12;15.50;99.90
12315;DHT22;23886;46.614;14.276;2022-09-16T13:07:41;15.60;99.90
12315;DHT22;23886;46.614;14.276;2022-09-16T13:10:16;15.70;99.90
12315;DHT22;23886;46.614;14.276;2022-09-16T13:12:50;15.70;99.90
12315;DHT22;23886;46.614;14.276;2022-09-16T13:15:25;15.70;99.90
12315;DHT22;23886;46.614;14.276;2022-09-16T13:17:52;15.70;99.90
12315;DHT22;23886;46.614;14.276;2022-09-16T13:20:23;15.80;99.90
12315;DHT22;23886;46.614;14.276;2022-09-16T13:23:01;15.80;99.90
12315;DHT22;23886;46.614;14.276;2022-09-16T13:25:33;15.70;99.90
12315;DHT22;23886;46.614;14.276;2022-09-16T13:30:45;15.40;99.90
12315;DHT22;23886;46.614;14.276;2022-09-16T13:33:25;15.60;99.90
12315;DHT22;23886;46.614;14.276;2022-09-16T13:36:12;15.60;99.90
12315;DHT22;23886;46.614;14.276;2022-09-16T13:38:40;15.80;99.90
12315;DHT22;23886;46.614;14.276;2022-09-16T13:41:10;15.90;99.90
12315;DHT22;23886;46.614;14.276;2022-09-16T13:43:51;16.00;99.90
12315;DHT22;23886;46.614;14.276;2022-09-16T13:46:33;15.90;99.90
12315;DHT22;23886;46.614;14.276;2022-09-16T13:49:17;16.00;99.90
12315;DHT22;23886;46.614;14.276;2022-09-16T13:51:46;15.90;99.90
12315;DHT22;23886;46.614;14.276;2022-09-16T13:54:24;15.60;99.90
12315;DHT22;23886;46.614;14.276;2022-09-16T13:57:10;15.60;99.90
12315;DHT22;23886;46.614;14.276;2022-09-16T13:59:55;15.60;99.90
12315;DHT22;23886;46.614;14.276;2022-09-16T14:02:34;15.50;99.90
12315;DHT22;23886;46.614;14.276;2022-09-16T14:05:23;15.50;99.90
12315;DHT22;23886;46.614;14.276;2022-09-16T14:07:56;15.40;99.90
12315;DHT22;23886;46.614;14.276;2022-09-16T14:10:33;15.50;99.90
12315;DHT22;23886;46.614;14.276;2022-09-16T14:13:05;15.40;99.90
12315;DHT22;23886;46.614;14.276;2022-09-16T14:15:41;15.30;99.90
12315;DHT22;23886;46.614;14.276;2022-09-16T14:18:12;15.30;99.90
12315;DHT22;23886;46.614;14.276;2022-09-16T14:20:51;15.30;99.90
12315;DHT22;23886;46.614;14.276;2022-09-16T14:23:21;15.20;99.90
12315;DHT22;23886;46.614;14.276;2022-09-16T14:25:48;15.10;99.90
12315;DHT22;23886;46.614;14.276;2022-09-16T14:28:16;14.90;99.90
12315;DHT22;23886;46.614;14.276;2022-09-16T14:30:50;14.90;99.90
12315;DHT22;23886;46.614;14.276;2022-09-16T14:33:22;15.00;99.90
12315;DHT22;23886;46.614;14.276;2022-09-16T14:35:52;15.00;99.90
12315;DHT22;23886;46.614;14.276;2022-09-16T14:38:21;15.20;99.90
12315;DHT22;23886;46.614;14.276;2022-09-16T14:40:51;15.30;99.90
12315;DHT22;23886;46.614;14.276;2022-09-16T14:43:19;15.20;99.90
12315;DHT22;23886;46.614;14.276;2022-09-16T14:45:51;15.20;99.90
12315;DHT22;23886;46.614;14.276;2022-09-16T14:48:27;15.00;99.90
12315;DHT22;23886;46.614;14.276;2022-09-16T14:50:56;14.80;99.90
12315;DHT22;23886;46.614;14.276;2022-09-16T14:53:28;14.80;99.90
12315;DHT22;23886;46.614;14.276;2022-09-16T14:55:56;14.70;99.90
12315;DHT22;23886;46.614;14.276;2022-09-16T14:58:25;14.70;99.90
12315;DHT22;23886;46.614;14.276;2022-09-16T15:00:58;14.60;99.90
12315;DHT22;23886;46.614;14.276;2022-09-16T15:03:30;14.70;99.90
12315;DHT22;23886;46.614;14.276;2022-09-16T15:05:59;14.50;99.90
12315;DHT22;23886;46.614;14.276;2022-09-16T15:08:32;14.50;99.90
12315;DHT22;23886;46.614;14.276;2022-09-16T15:11:05;14.40;99.90
12315;DHT22;23886;46.614;14.276;2022-09-16T15:13:38;14.50;99.90
12315;DHT22;23886;46.614;14.276;2022-09-16T15:16:10;14.50;99.90
12315;DHT22;23886;46.614;14.276;2022-09-16T15:18:38;14.40;99.90
12315;DHT22;23886;46.614;14.276;2022-09-16T15:21:09;14.30;99.90
12315;DHT22;23886;46.614;14.276;2022-09-16T15:23:39;14.30;99.90
12315;DHT22;23886;46.614;14.276;2022-09-16T15:26:12;14.30;99.90
12315;DHT22;23886;46.614;14.276;2022-09-16T15:28:54;14.40;99.90
12315;DHT22;23886;46.614;14.276;2022-09-16T15:31:31;14.40;99.90
12315;DHT22;23886;46.614;14.276;2022-09-16T15:34:01;14.40;99.90
12315;DHT22;23886;46.614;14.276;2022-09-16T15:36:37;14.40;99.90
12315;DHT22;23886;46.614;14.276;2022-09-16T15:39:19;14.40;99.90
12315;DHT22;23886;46.614;14.276;2022-09-16T15:41:46;14.40;99.90
12315;DHT22;23886;46.614;14.276;2022-09-16T15:44:17;14.30;99.90
12315;DHT22;23886;46.614;14.276;2022-09-16T15:46:46;14.30;99.90
12315;DHT22;23886;46.614;14.276;2022-09-16T15:49:16;14.30;99.90
12315;DHT22;23886;46.614;14.276;2022-09-16T15:51:46;14.30;99.90
12315;DHT22;23886;46.614;14.276;2022-09-16T15:54:17;14.30;99.90
12315;DHT22;23886;46.614;14.276;2022-09-16T15:56:51;14.20;99.90
12315;DHT22;23886;46.614;14.276;2022-09-16T15:59:26;14.20;99.90
12315;DHT22;23886;46.614;14.276;2022-09-16T16:01:58;14.20;99.90